Time;durP1;ratioP1;P1;durP2;ratioP2;P2;SDS_P1;SDS_P2;PMS_P1;PMS_P2;Temp;Humidity;BMP_temperature;BMP_pressure;BME280_temperature;BME280_humidity;BME280_pressure;Samples;Min_cycle;Max_cycle;Signal;HPM_P1;HPM_P2
2021/08/18 00:00:44;;;;;;;4.47;1.67;;;;;;;22.24;46.65;102005.97;5031722;28;20029;-71
2021/08/18 00:03:10;;;;;;;3.42;1.40;;;;;;;22.41;46.27;102011.13;5030430;28;20483;-72
2021/08/18 00:05:37;;;;;;;5.57;1.77;;;;;;;22.14;46.97;102013.69;5031954;28;20361;-71
2021/08/18 00:08:08;;;;;;;4.35;2.33;;;;;;;22.45;46.27;102009.25;5031629;28;20036;-71
2021/08/18 00:10:35;;;;;;;6.10;2.42;;;;;;;22.38;46.31;102004.31;5031584;28;20040;-71
2021/08/18 00:13:01;;;;;;;4.07;1.60;;;;;;;22.56;46.01;101989.97;5031492;28;20038;-72
2021/08/18 00:15:28;;;;;;;5.03;2.17;;;;;;;22.59;45.93;101994.78;5031582;28;20040;-71
2021/08/18 00:17:58;;;;;;;6.75;2.15;;;;;;;22.23;47.13;101998.78;5030172;28;20094;-72
2021/08/18 00:20:23;;;;;;;5.82;2.30;;;;;;;22.22;47.06;101997.13;5031743;28;20041;-71
2021/08/18 00:22:49;;;;;;;10.23;2.40;;;;;;;22.39;46.52;101996.75;5030857;28;20391;-71
2021/08/18 00:25:14;;;;;;;6.20;2.17;;;;;;;22.14;47.19;101999.78;5031296;28;20108;-72
2021/08/18 00:27:40;;;;;;;5.25;2.10;;;;;;;22.30;47.09;101993.38;5029821;28;20048;-72
2021/08/18 00:30:07;;;;;;;6.18;1.70;;;;;;;22.41;46.68;101994.41;5031289;28;20037;-73
2021/08/18 00:32:33;;;;;;;4.22;1.80;;;;;;;22.62;45.98;101986.53;5031094;28;20037;-73
2021/08/18 00:34:58;;;;;;;10.05;2.70;;;;;;;22.33;47.05;101982.31;5031204;28;20078;-71
2021/08/18 00:37:24;;;;;;;4.32;1.77;;;;;;;22.15;47.56;101981.91;5031547;28;20020;-71
2021/08/18 00:39:50;;;;;;;3.83;1.77;;;;;;;22.25;47.04;101979.72;5031037;28;20067;-71
2021/08/18 00:42:18;;;;;;;4.93;2.05;;;;;;;22.26;47.33;101979.34;5031113;28;20028;-71
2021/08/18 00:44:44;;;;;;;3.55;1.75;;;;;;;22.19;47.32;101981.16;5031102;28;20030;-77
2021/08/18 00:47:09;;;;;;;4.35;1.65;;;;;;;22.12;47.51;101977.03;5031090;28;20115;-71
2021/08/18 00:49:35;;;;;;;4.97;1.80;;;;;;;22.05;47.70;101971.28;5031226;28;20089;-71
2021/08/18 00:52:03;;;;;;;3.75;1.65;;;;;;;22.07;47.84;101966.19;5030835;28;20558;-71
2021/08/18 00:54:28;;;;;;;5.28;2.45;;;;;;;22.05;48.06;101971.28;5030992;28;20056;-71
2021/08/18 00:56:55;;;;;;;3.70;1.88;;;;;;;22.10;47.83;101968.25;5030825;28;20079;-72
2021/08/18 00:59:22;;;;;;;4.50;2.05;;;;;;;21.93;48.08;101962.25;5030811;28;20105;-71
2021/08/18 01:01:48;;;;;;;4.78;1.88;;;;;;;22.15;47.69;101961.63;5029584;28;20101;-71
2021/08/18 01:04:13;;;;;;;2.60;1.40;;;;;;;22.11;47.94;101955.16;5031018;28;20475;-71
2021/08/18 01:06:41;;;;;;;5.20;2.10;;;;;;;21.58;49.41;101954.63;5030947;28;20026;-71
2021/08/18 01:09:09;;;;;;;6.25;2.83;;;;;;;21.62;49.29;101951.97;5030642;28;20519;-71
2021/08/18 01:11:39;;;;;;;4.03;1.50;;;;;;;21.61;49.18;101951.13;5030566;28;20034;-71
2021/08/18 01:14:05;;;;;;;4.57;1.83;;;;;;;21.56;49.44;101954.19;5030674;28;20036;-72
2021/08/18 01:16:35;;;;;;;4.55;1.70;;;;;;;21.85;48.67;101944.56;5030574;28;20025;-71
2021/08/18 01:19:00;;;;;;;8.05;2.10;;;;;;;21.50;49.53;101950.06;5030677;28;20029;-71
2021/08/18 01:21:26;;;;;;;3.90;2.22;;;;;;;21.84;48.54;101946.56;5030485;28;20026;-71
2021/08/18 01:23:52;;;;;;;7.00;1.70;;;;;;;22.02;48.07;101952.53;5030631;28;20472;-71
2021/08/18 01:26:17;;;;;;;4.90;1.88;;;;;;;21.88;48.12;101944.66;5030452;28;20379;-72
2021/08/18 01:28:43;;;;;;;3.25;1.70;;;;;;;21.87;48.63;101945.03;5030178;28;20617;-72
2021/08/18 01:31:09;;;;;;;6.20;1.83;;;;;;;21.79;48.73;101946.03;5030327;28;20026;-72
2021/08/18 01:33:35;;;;;;;4.22;1.67;;;;;;;21.59;49.55;101943.13;5029386;28;20040;-71
2021/08/18 01:36:00;;;;;;;4.60;1.80;;;;;;;21.74;49.00;101933.19;5030305;28;20029;-71
2021/08/18 01:38:26;;;;;;;2.95;1.73;;;;;;;21.91;48.18;101931.19;5030279;28;20079;-71
2021/08/18 01:40:53;;;;;;;5.05;1.92;;;;;;;21.35;50.15;101931.41;5030247;28;20032;-71
2021/08/18 01:43:23;;;;;;;3.63;1.88;;;;;;;21.64;49.03;101933.72;5030137;28;20061;-73
2021/08/18 01:45:49;;;;;;;4.65;2.33;;;;;;;21.17;50.46;101926.16;5030182;28;20032;-84
2021/08/18 01:48:16;;;;;;;2.78;1.90;;;;;;;21.58;49.06;101929.59;5030201;28;20521;-72
2021/08/18 01:50:46;;;;;;;3.75;1.83;;;;;;;21.64;48.82;101921.81;5030099;28;20074;-71
2021/08/18 01:53:23;;;;;;;7.78;2.25;;;;;;;21.66;48.69;101925.81;5029993;28;20053;-71
2021/08/18 01:55:49;;;;;;;3.10;1.35;;;;;;;21.20;50.00;101930.97;5030120;28;20060;-71
2021/08/18 01:58:15;;;;;;;3.55;1.73;;;;;;;21.33;49.64;101927.00;5029959;28;20018;-71
2021/08/18 02:00:41;;;;;;;4.68;1.95;;;;;;;21.53;49.12;101935.44;5029953;28;20373;-71
2021/08/18 02:03:07;;;;;;;4.00;1.75;;;;;;;21.80;48.27;101925.38;5029791;28;20109;-71
2021/08/18 02:05:32;;;;;;;8.00;2.00;;;;;;;21.30;50.11;101929.69;5029860;28;20143;-72
2021/08/18 02:07:58;;;;;;;4.68;2.05;;;;;;;21.68;48.87;101926.25;5029851;28;20051;-71
2021/08/18 02:10:25;;;;;;;5.28;1.92;;;;;;;21.45;49.55;101925.28;5029803;28;20079;-71
2021/08/18 02:12:51;;;;;;;2.85;1.77;;;;;;;21.32;49.99;101924.59;5028417;28;20545;-71
2021/08/18 02:15:30;;;;;;;4.50;2.22;;;;;;;21.30;50.20;101926.91;5029722;28;20033;-71
2021/08/18 02:17:57;;;;;;;4.80;2.40;;;;;;;21.10;50.81;101920.41;5029716;28;20052;-71
2021/08/18 02:20:27;;;;;;;4.07;1.88;;;;;;;21.29;50.30;101914.97;5029755;28;20618;-71
2021/08/18 02:22:54;;;;;;;3.35;1.75;;;;;;;21.28;50.31;101909.78;5029656;28;20049;-72
2021/08/18 02:25:20;;;;;;;2.90;1.75;;;;;;;21.40;49.87;101906.91;5029657;28;20040;-84
2021/08/18 02:27:46;;;;;;;2.15;1.50;;;;;;;21.28;50.33;101913.34;5029381;28;20048;-71
2021/08/18 02:30:15;;;;;;;3.22;2.00;;;;;;;21.31;50.43;101914.59;5029569;28;20444;-71
2021/08/18 02:32:41;;;;;;;3.90;2.28;;;;;;;21.33;50.35;101909.53;5029714;28;20509;-72
2021/08/18 02:35:08;;;;;;;8.05;2.70;;;;;;;21.48;49.92;101902.34;5029722;28;20108;-71
2021/08/18 02:37:34;;;;;;;4.07;1.80;;;;;;;21.36;50.63;101900.44;5029401;28;20384;-71
2021/08/18 02:40:00;;;;;;;5.03;1.85;;;;;;;21.43;50.40;101895.06;5029635;28;20438;-72
2021/08/18 02:42:26;;;;;;;4.95;2.17;;;;;;;21.68;49.45;101890.09;5029304;28;20112;-72
2021/08/18 02:44:51;;;;;;;5.30;2.17;;;;;;;21.43;50.14;101889.50;5031072;28;20056;-71
2021/08/18 02:47:17;;;;;;;6.70;2.35;;;;;;;21.39;50.45;101896.97;5032867;28;20056;-71
2021/08/18 02:49:43;;;;;;;4.25;2.13;;;;;;;21.22;50.88;101892.50;5032731;28;20036;-72
2021/08/18 02:52:09;;;;;;;5.25;2.45;;;;;;;21.62;49.59;101888.00;5032654;28;20029;-71
2021/08/18 02:54:35;;;;;;;4.68;2.47;;;;;;;21.53;50.03;101880.63;5032764;28;20029;-72
2021/08/18 02:57:01;;;;;;;5.45;2.10;;;;;;;21.63;49.83;101884.03;5032771;28;20085;-71
2021/08/18 02:59:26;;;;;;;5.80;2.35;;;;;;;21.88;48.87;101882.63;5032731;28;20617;-71
2021/08/18 03:01:53;;;;;;;4.45;2.28;;;;;;;21.75;49.26;101872.78;5032712;28;20033;-71
2021/08/18 03:04:19;;;;;;;6.45;2.15;;;;;;;21.85;49.05;101878.63;5031461;28;20030;-71
2021/08/18 03:06:44;;;;;;;6.63;2.30;;;;;;;22.16;48.33;101879.72;5032636;28;20033;-72
2021/08/18 03:09:10;;;;;;;5.95;2.30;;;;;;;22.19;48.27;101875.38;5032531;28;20044;-72
2021/08/18 03:11:36;;;;;;;11.23;2.75;;;;;;;22.00;48.77;101868.63;5032549;28;20053;-72
2021/08/18 03:14:03;;;;;;;4.43;2.30;;;;;;;22.26;47.96;101870.78;5032802;28;20033;-71
2021/08/18 03:16:29;;;;;;;6.85;2.45;;;;;;;22.15;48.54;101880.91;5031140;28;20032;-72
2021/08/18 03:18:55;;;;;;;4.18;2.58;;;;;;;22.32;47.71;101866.53;5031576;28;20561;-71
2021/08/18 03:21:21;;;;;;;3.13;1.85;;;;;;;22.31;47.98;101864.13;5031941;28;20071;-71
2021/08/18 03:23:46;;;;;;;4.90;2.92;;;;;;;22.25;47.95;101855.25;5029087;28;20057;-79
2021/08/18 03:26:12;;;;;;;6.28;2.58;;;;;;;22.20;48.09;101854.72;5031150;28;20042;-82
2021/08/18 03:28:38;;;;;;;3.92;1.92;;;;;;;21.86;48.89;101844.06;5030915;28;20082;-79
2021/08/18 03:31:03;;;;;;;3.60;2.13;;;;;;;21.84;49.03;101851.16;5032043;28;20025;-81
2021/08/18 03:33:29;;;;;;;4.82;2.47;;;;;;;21.79;49.00;101841.09;5030666;28;20045;-85
2021/08/18 03:35:54;;;;;;;8.32;3.33;;;;;;;21.92;48.62;101835.44;5030740;28;20553;-84
2021/08/18 03:38:20;;;;;;;3.63;1.95;;;;;;;22.07;47.98;101837.34;5031840;28;20087;-71
2021/08/18 03:40:46;;;;;;;6.15;2.92;;;;;;;21.84;48.90;101842.81;5031794;28;20036;-70
2021/08/18 03:43:13;;;;;;;4.18;2.10;;;;;;;21.95;48.59;101837.47;5029833;28;20125;-80
2021/08/18 03:45:39;;;;;;;9.02;2.88;;;;;;;21.98;48.52;101834.75;5030015;28;20167;-71
2021/08/18 03:48:05;;;;;;;6.15;2.70;;;;;;;22.03;48.49;101839.25;5031064;28;20101;-83
2021/08/18 03:50:31;;;;;;;5.05;2.35;;;;;;;22.08;48.40;101842.56;5028308;28;20112;-71
2021/08/18 03:52:56;;;;;;;8.88;3.00;;;;;;;22.06;48.47;101835.72;5031041;28;20108;-71
2021/08/18 03:55:22;;;;;;;6.18;2.40;;;;;;;22.01;48.76;101836.81;5029295;28;20108;-71
2021/08/18 03:57:47;;;;;;;6.03;2.20;;;;;;;21.97;48.72;101829.56;5030283;28;20026;-71
2021/08/18 04:00:14;;;;;;;5.15;2.42;;;;;;;21.85;49.31;101830.50;5030888;28;20030;-70
2021/08/18 04:02:40;;;;;;;4.90;2.13;;;;;;;21.75;49.45;101825.50;5030749;28;20033;-78
2021/08/18 04:05:06;;;;;;;5.85;3.00;;;;;;;21.98;48.64;101831.16;5030679;28;20041;-71
2021/08/18 04:07:33;;;;;;;4.25;2.60;;;;;;;21.91;48.80;101822.66;5030763;28;20021;-76
2021/08/18 04:09:58;;;;;;;6.55;2.63;;;;;;;21.87;49.60;101825.38;5030869;28;20018;-71
2021/08/18 04:12:24;;;;;;;6.53;2.58;;;;;;;21.99;48.94;101821.66;5029297;28;20129;-71
2021/08/18 04:14:50;;;;;;;5.32;2.72;;;;;;;21.85;49.32;101822.16;5030433;28;20034;-72
2021/08/18 04:17:15;;;;;;;5.05;2.55;;;;;;;21.96;48.57;101820.41;5030954;28;20112;-85
2021/08/18 04:19:42;;;;;;;8.15;2.15;;;;;;;21.53;50.25;101813.88;5030611;28;20368;-71
2021/08/18 04:22:08;;;;;;;6.15;2.80;;;;;;;21.74;49.75;101813.56;5030459;28;20029;-71
2021/08/18 04:24:35;;;;;;;4.65;2.35;;;;;;;21.77;49.62;101812.06;5030486;28;20025;-71
2021/08/18 04:27:01;;;;;;;5.32;2.78;;;;;;;22.10;48.37;101806.81;5030353;28;20179;-71
2021/08/18 04:29:27;;;;;;;5.43;2.53;;;;;;;21.96;48.90;101800.94;5030575;28;20432;-71
2021/08/18 04:31:53;;;;;;;8.25;3.35;;;;;;;22.07;48.59;101810.31;5030234;28;20121;-71
2021/08/18 04:34:18;;;;;;;11.60;3.25;;;;;;;21.89;49.01;101803.56;5029171;28;20029;-71
2021/08/18 04:36:44;;;;;;;5.10;2.42;;;;;;;21.86;49.29;101804.31;5030265;28;20514;-72
2021/08/18 04:39:09;;;;;;;4.32;2.50;;;;;;;21.80;49.47;101806.56;5030199;28;20480;-72
2021/08/18 04:41:35;;;;;;;5.78;2.35;;;;;;;22.02;48.91;101799.47;5030952;28;20106;-71
2021/08/18 04:44:01;;;;;;;5.88;2.53;;;;;;;21.72;49.63;101799.22;5031160;28;20509;-85
2021/08/18 04:46:27;;;;;;;5.10;2.65;;;;;;;21.64;49.99;101796.66;5031235;28;20025;-72
2021/08/18 04:48:53;;;;;;;6.90;2.95;;;;;;;21.68;49.87;101791.97;5029869;28;20632;-72
2021/08/18 04:51:19;;;;;;;3.33;2.30;;;;;;;21.82;49.59;101795.84;5031076;28;20033;-71
2021/08/18 04:53:44;;;;;;;6.00;2.83;;;;;;;21.45;50.68;101795.41;5030918;28;20038;-83
2021/08/18 04:56:11;;;;;;;3.85;2.55;;;;;;;21.66;50.01;101794.31;5030930;28;20021;-71
2021/08/18 04:58:37;;;;;;;9.88;2.85;;;;;;;21.64;50.25;101786.31;5030761;28;20109;-71
2021/08/18 05:01:03;;;;;;;6.85;3.28;;;;;;;21.52;50.67;101789.22;5030868;28;20452;-71
2021/08/18 05:03:29;;;;;;;4.38;2.70;;;;;;;21.56;50.46;101788.13;5030673;28;20026;-71
2021/08/18 05:05:54;;;;;;;11.25;3.85;;;;;;;21.75;49.82;101790.13;5030706;28;20029;-84
2021/08/18 05:08:20;;;;;;;8.23;3.90;;;;;;;21.92;49.32;101797.28;5030877;28;20116;-72
2021/08/18 05:10:46;;;;;;;9.07;3.33;;;;;;;21.93;49.45;101801.66;5030979;28;20029;-71
2021/08/18 05:13:12;;;;;;;9.32;3.47;;;;;;;21.73;49.86;101794.47;5030905;28;20030;-72
2021/08/18 05:15:37;;;;;;;7.20;2.90;;;;;;;21.73;50.15;101791.69;5029349;28;20531;-71
2021/08/18 05:18:03;;;;;;;12.80;3.95;;;;;;;21.97;49.52;101796.16;5030564;28;20040;-73
2021/08/18 05:20:29;;;;;;;10.15;3.90;;;;;;;22.21;48.59;101797.88;5030600;28;20033;-77
2021/08/18 05:22:55;;;;;;;7.97;3.15;;;;;;;22.09;49.15;101798.84;5028803;28;20082;-71
2021/08/18 05:25:22;;;;;;;8.02;3.30;;;;;;;22.09;49.13;101793.28;5029367;28;20033;-72
2021/08/18 05:27:48;;;;;;;7.13;3.20;;;;;;;22.21;48.68;101783.97;5027967;28;20082;-83
2021/08/18 05:30:15;;;;;;;6.10;2.97;;;;;;;22.00;49.40;101790.69;5029029;28;20425;-83
2021/08/18 05:32:41;;;;;;;6.45;3.08;;;;;;;21.78;50.35;101805.31;5030345;28;20041;-71
2021/08/18 05:35:09;;;;;;;7.07;3.17;;;;;;;22.15;49.00;101792.63;5030369;28;20029;-71
2021/08/18 05:37:35;;;;;;;5.43;3.17;;;;;;;21.78;50.29;101792.22;5030272;28;20109;-70
2021/08/18 05:40:02;;;;;;;7.80;3.17;;;;;;;22.14;49.32;101802.16;5030202;28;20494;-70
2021/08/18 05:42:28;;;;;;;7.38;3.53;;;;;;;22.35;48.53;101796.19;5030469;28;20371;-70
2021/08/18 05:44:53;;;;;;;4.95;2.42;;;;;;;21.81;50.12;101799.81;5030255;28;20029;-71
2021/08/18 05:47:19;;;;;;;12.73;4.35;;;;;;;22.05;49.33;101793.16;5029015;28;20515;-80
2021/08/18 05:49:45;;;;;;;7.85;3.05;;;;;;;22.18;49.18;101781.94;5030276;28;20086;-71
2021/08/18 05:52:11;;;;;;;7.40;3.58;;;;;;;21.93;49.99;101784.19;5028805;28;20038;-71
2021/08/18 05:54:38;;;;;;;7.22;2.92;;;;;;;22.06;49.76;101789.22;5030255;28;20057;-71
2021/08/18 05:57:04;;;;;;;5.28;3.13;;;;;;;22.14;49.31;101791.03;5030048;28;20033;-70
2021/08/18 05:59:30;;;;;;;5.55;2.42;;;;;;;22.18;49.42;101784.72;5029725;28;20034;-71
2021/08/18 06:01:56;;;;;;;8.07;2.95;;;;;;;22.11;49.46;101791.75;5029893;28;20360;-83
2021/08/18 06:04:21;;;;;;;7.90;3.08;;;;;;;22.32;48.90;101791.38;5029848;28;20093;-70
2021/08/18 06:06:47;;;;;;;8.07;3.63;;;;;;;22.40;48.83;101781.19;5029889;28;20033;-70
2021/08/18 06:09:12;;;;;;;5.78;2.65;;;;;;;22.18;49.50;101776.34;5030004;28;20037;-70
2021/08/18 06:11:40;;;;;;;7.05;3.00;;;;;;;22.08;49.82;101781.34;5029827;28;20052;-70
2021/08/18 06:14:08;;;;;;;7.05;3.30;;;;;;;22.28;49.46;101778.53;5029855;28;20025;-85
2021/08/18 06:16:34;;;;;;;7.03;3.60;;;;;;;22.17;49.56;101786.69;5029924;28;20142;-71
2021/08/18 06:18:59;;;;;;;8.80;3.47;;;;;;;22.40;49.25;101787.53;5029340;28;20478;-85
2021/08/18 06:21:25;;;;;;;6.03;3.10;;;;;;;22.45;49.12;101796.78;5029800;28;20026;-71
2021/08/18 06:23:55;;;;;;;6.35;3.35;;;;;;;22.47;48.85;101792.44;5028235;28;20033;-71
2021/08/18 06:26:21;;;;;;;9.18;3.53;;;;;;;22.42;49.01;101792.75;5029763;28;20592;-71
2021/08/18 06:28:46;;;;;;;4.90;2.70;;;;;;;22.32;49.58;101787.78;5029597;28;20045;-84
2021/08/18 06:31:12;;;;;;;11.88;3.58;;;;;;;22.48;49.12;101798.81;5029699;28;20029;-82
2021/08/18 06:33:38;;;;;;;10.25;3.30;;;;;;;22.63;48.58;101792.34;5028360;28;20029;-71
2021/08/18 06:36:04;;;;;;;7.72;3.00;;;;;;;22.10;50.53;101801.25;5029584;28;20021;-84
2021/08/18 06:38:30;;;;;;;7.60;2.75;;;;;;;22.54;49.28;101798.16;5029511;28;20502;-71
2021/08/18 06:40:56;;;;;;;7.57;3.67;;;;;;;22.52;49.25;101789.38;5029431;28;20033;-84
2021/08/18 06:43:21;;;;;;;7.28;3.88;;;;;;;22.64;48.75;101786.41;5029466;28;20030;-72
2021/08/18 06:45:47;;;;;;;7.82;3.15;;;;;;;22.69;48.72;101788.09;5029256;28;20109;-71
2021/08/18 06:48:13;;;;;;;7.97;2.75;;;;;;;22.64;49.39;101789.19;5029440;28;20033;-84
2021/08/18 06:50:38;;;;;;;9.95;3.25;;;;;;;22.60;49.24;101785.53;5029565;28;20029;-72
2021/08/18 06:53:04;;;;;;;12.32;3.25;;;;;;;22.69;49.17;101786.09;5029275;28;20508;-71
2021/08/18 06:55:30;;;;;;;6.15;2.92;;;;;;;22.50;50.14;101785.31;5028031;28;20476;-71
2021/08/18 06:57:56;;;;;;;11.57;4.28;;;;;;;22.59;49.51;101788.69;5029293;28;20034;-71
2021/08/18 07:00:22;;;;;;;7.25;3.50;;;;;;;22.49;49.78;101784.53;5029010;28;20026;-71
2021/08/18 07:02:51;;;;;;;5.40;2.70;;;;;;;22.67;49.50;101780.09;5029803;28;20082;-70
2021/08/18 07:05:19;;;;;;;5.25;2.67;;;;;;;22.62;49.44;101785.97;5028053;28;20033;-72
2021/08/18 07:07:45;;;;;;;7.70;2.95;;;;;;;22.74;49.30;101789.75;5024947;28;20030;-70
2021/08/18 07:10:12;;;;;;;5.43;2.50;;;;;;;22.77;49.28;101777.88;5027537;28;20591;-70
2021/08/18 07:12:38;;;;;;;6.05;2.92;;;;;;;22.75;49.56;101783.81;5029206;28;20056;-70
2021/08/18 07:15:05;;;;;;;12.18;4.45;;;;;;;22.90;49.14;101784.91;5027862;28;20021;-70
2021/08/18 07:17:30;;;;;;;5.80;2.58;;;;;;;22.68;49.80;101783.69;5028972;28;20025;-70
2021/08/18 07:19:56;;;;;;;4.88;2.55;;;;;;;22.76;49.63;101782.66;5028957;28;20037;-71
2021/08/18 07:22:22;;;;;;;10.48;3.38;;;;;;;22.65;50.32;101781.63;5029023;28;20032;-70
2021/08/18 07:24:47;;;;;;;4.95;2.35;;;;;;;22.96;49.41;101775.84;5026833;28;20018;-71
2021/08/18 07:27:14;;;;;;;5.90;2.70;;;;;;;22.94;49.51;101782.97;5025827;28;20045;-70
2021/08/18 07:29:40;;;;;;;7.53;2.80;;;;;;;22.84;50.05;101784.38;5027913;28;20494;-72
2021/08/18 07:32:06;;;;;;;5.55;2.80;;;;;;;23.08;49.41;101777.63;5014229;28;20037;-70
2021/08/18 07:34:33;;;;;;;5.20;2.20;;;;;;;23.14;49.21;101769.78;5015539;28;20052;-70
2021/08/18 07:36:59;;;;;;;4.90;2.20;;;;;;;22.96;49.87;101780.59;5016334;28;20017;-70
2021/08/18 07:39:24;;;;;;;5.47;2.97;;;;;;;23.19;49.04;101777.78;5016103;28;20022;-75
2021/08/18 07:41:50;;;;;;;3.65;2.05;;;;;;;22.83;49.97;101776.41;5013615;28;20114;-69
2021/08/18 07:44:15;;;;;;;5.88;3.03;;;;;;;23.16;48.76;101764.63;5015584;28;20102;-70
2021/08/18 07:46:41;;;;;;;7.13;3.28;;;;;;;23.21;48.86;101767.09;5014973;28;20492;-69
2021/08/18 07:49:06;;;;;;;6.80;2.40;;;;;;;23.08;49.31;101772.06;5014021;28;20013;-70
2021/08/18 07:51:32;;;;;;;7.65;2.90;;;;;;;23.13;49.37;101774.53;5015436;28;20053;-71
2021/08/18 07:53:58;;;;;;;9.52;2.70;;;;;;;23.43;48.59;101769.03;5015605;28;20032;-70
2021/08/18 07:56:23;;;;;;;5.32;2.10;;;;;;;23.50;47.92;101773.88;5015072;28;20160;-70
2021/08/18 07:58:49;;;;;;;2.97;2.20;;;;;;;23.50;48.14;101773.88;5013848;28;20030;-69
2021/08/18 08:01:14;;;;;;;4.60;2.15;;;;;;;23.38;48.63;101777.72;5015644;28;20077;-69
2021/08/18 08:03:40;;;;;;;7.47;2.38;;;;;;;23.60;48.10;101776.06;5014669;28;20052;-71
2021/08/18 08:06:05;;;;;;;4.97;2.10;;;;;;;23.16;49.06;101770.19;5014977;28;20052;-71
2021/08/18 08:08:31;;;;;;;3.65;1.48;;;;;;;23.56;47.92;101771.56;5015784;28;20033;-72
2021/08/18 08:10:56;;;;;;;5.15;2.30;;;;;;;23.62;47.93;101784.84;5013216;28;20102;-78
2021/08/18 08:13:22;;;;;;;4.95;2.40;;;;;;;23.66;47.99;101779.34;5029521;28;20376;-70
2021/08/18 08:15:47;;;;;;;7.78;2.78;;;;;;;23.51;48.09;101779.09;5030823;28;20032;-73
2021/08/18 08:18:13;;;;;;;3.60;2.00;;;;;;;23.62;48.16;101761.72;5031225;28;20025;-79
2021/08/18 08:20:39;;;;;;;4.45;1.90;;;;;;;23.74;47.25;101770.69;5030098;28;20018;-80
2021/08/18 08:23:05;;;;;;;3.25;2.05;;;;;;;23.85;46.79;101765.22;5031099;28;20018;-69
2021/08/18 08:25:31;;;;;;;2.75;1.42;;;;;;;23.68;47.51;101768.59;5030895;28;20022;-74
2021/08/18 08:27:58;;;;;;;2.53;1.65;;;;;;;23.64;47.45;101768.53;5030185;28;20053;-71
2021/08/18 08:30:24;;;;;;;3.13;1.50;;;;;;;23.58;47.55;101772.81;5030503;28;20037;-68
2021/08/18 08:32:50;;;;;;;3.95;1.95;;;;;;;23.66;47.41;101768.19;5030764;28;20032;-73
2021/08/18 08:35:16;;;;;;;3.45;1.67;;;;;;;23.75;47.22;101763.91;5029862;28;20022;-70
2021/08/18 08:37:42;;;;;;;2.28;1.20;;;;;;;23.92;47.01;101773.69;5030754;28;20131;-70
2021/08/18 08:40:08;;;;;;;5.63;1.83;;;;;;;23.88;47.38;101775.66;5030856;28;20104;-69
2021/08/18 08:42:36;;;;;;;1.73;1.17;;;;;;;23.84;47.38;101762.81;5030636;28;20105;-71
2021/08/18 08:45:04;;;;;;;4.53;1.90;;;;;;;23.88;47.32;101760.88;5030881;28;20483;-72
2021/08/18 08:47:29;;;;;;;2.30;1.52;;;;;;;23.80;47.70;101763.59;5029157;28;20453;-73
2021/08/18 08:49:56;;;;;;;2.70;1.50;;;;;;;23.81;47.30;101756.03;5030122;28;20032;-70
2021/08/18 08:52:22;;;;;;;6.60;1.83;;;;;;;23.96;47.25;101759.81;5028278;28;20032;-80
2021/08/18 08:54:48;;;;;;;3.30;1.40;;;;;;;23.92;46.62;101759.75;5027919;28;20025;-80
2021/08/18 08:57:14;;;;;;;4.57;1.50;;;;;;;23.93;47.23;101761.34;5029346;28;20039;-74
2021/08/18 08:59:39;;;;;;;6.47;1.70;;;;;;;24.07;46.39;101752.34;5028304;28;20029;-83
2021/08/18 09:02:12;;;;;;;3.08;1.48;;;;;;;23.71;47.73;101751.88;5026437;28;20451;-78
2021/08/18 09:04:46;;;;;;;5.05;1.55;;;;;;;23.58;48.09;101744.94;5029075;28;20021;-79
2021/08/18 09:07:21;;;;;;;5.43;1.38;;;;;;;24.10;46.57;101748.78;5025898;28;20051;-79
2021/08/18 09:09:55;;;;;;;4.88;1.52;;;;;;;24.01;47.01;101740.72;5027913;28;20166;-81
2021/08/18 09:12:34;;;;;;;3.47;1.33;;;;;;;23.90;47.58;101744.56;5030264;28;20030;-75
2021/08/18 09:15:20;;;;;;;5.07;1.58;;;;;;;23.99;47.71;101743.09;5023293;28;20555;-76
2021/08/18 09:17:48;;;;;;;5.15;1.65;;;;;;;24.30;46.58;101736.25;5013495;28;20376;-74
2021/08/18 09:20:20;;;;;;;3.03;1.90;;;;;;;24.42;46.17;101742.78;5012647;28;20804;-74
2021/08/18 09:22:49;;;;;;;2.95;1.08;;;;;;;24.32;46.69;101739.47;5013464;28;20049;-77
2021/08/18 09:25:27;;;;;;;4.18;1.80;;;;;;;24.33;47.03;101741.13;5012796;28;20582;-74
2021/08/18 09:27:53;;;;;;;2.03;1.45;;;;;;;24.43;46.32;101745.19;5013626;28;20136;-74
2021/08/18 09:30:23;;;;;;;3.30;1.40;;;;;;;24.54;45.90;101734.91;5012732;28;20044;-75
2021/08/18 09:32:49;;;;;;;1.77;1.15;;;;;;;24.59;46.05;101731.78;5014133;28;20389;-74
2021/08/18 09:35:18;;;;;;;2.70;1.42;;;;;;;24.55;46.29;101732.91;5014282;28;20040;-76
2021/08/18 09:38:05;;;;;;;5.40;1.67;;;;;;;24.39;46.66;101724.00;5012633;27;20038;-75
2021/08/18 09:40:31;;;;;;;3.72;1.40;;;;;;;24.61;46.64;101723.81;5010145;28;20366;-76
2021/08/18 09:43:30;;;;;;;1.30;0.90;;;;;;;24.56;46.51;101726.97;5009015;28;20120;-74
2021/08/18 09:46:00;;;;;;;3.38;1.77;;;;;;;25.25;44.86;101712.34;5014318;28;20039;-74
2021/08/18 09:48:27;;;;;;;6.50;1.63;;;;;;;25.51;44.81;101713.28;5009996;28;20089;-74
2021/08/18 09:51:02;;;;;;;5.18;1.48;;;;;;;25.41;44.45;101717.63;5009144;28;20116;-74
2021/08/18 09:53:31;;;;;;;4.13;1.58;;;;;;;25.36;44.80;101712.41;5007459;28;20126;-75
2021/08/18 09:56:06;;;;;;;2.17;1.27;;;;;;;25.65;43.69;101714.16;5008594;28;20519;-75
2021/08/18 09:58:40;;;;;;;9.48;2.88;;;;;;;26.05;43.05;101706.72;5013336;28;20026;-78
2021/08/18 10:01:11;;;;;;;3.60;1.75;;;;;;;26.36;42.73;101693.97;5010734;28;20675;-78
2021/08/18 10:03:41;;;;;;;2.60;1.50;;;;;;;26.36;42.62;101693.97;5010876;28;20032;-78
2021/08/18 10:06:10;;;;;;;3.35;1.52;;;;;;;26.63;42.12;101694.44;5012102;28;20029;-90
2021/08/18 10:08:37;;;;;;;3.33;2.10;;;;;;;26.46;42.21;101696.03;5027617;28;20032;-77
2021/08/18 10:11:04;;;;;;;3.95;2.10;;;;;;;26.54;41.88;101694.03;5027819;28;20034;-80
2021/08/18 10:13:30;;;;;;;5.15;1.83;;;;;;;26.85;41.38;101695.22;5030504;28;20033;-77
2021/08/18 10:15:57;;;;;;;3.03;1.70;;;;;;;26.99;41.05;101695.22;5029569;28;20053;-76
2021/08/18 10:18:32;;;;;;;2.88;1.92;;;;;;;26.97;41.01;101691.19;5030773;28;20089;-76
2021/08/18 10:21:17;;;;;;;3.97;2.17;;;;;;;27.20;40.67;101685.16;5017067;28;20040;-78
2021/08/18 10:23:59;;;;;;;5.57;2.33;;;;;;;27.28;40.48;101683.94;5009564;28;20511;-82
2021/08/18 10:26:33;;;;;;;5.78;2.58;;;;;;;27.10;40.37;101676.38;5012452;28;20517;-77
2021/08/18 10:29:06;;;;;;;5.43;1.85;;;;;;;27.44;40.03;101689.13;5012359;28;20044;-76
2021/08/18 10:31:40;;;;;;;2.47;1.27;;;;;;;27.08;39.92;101675.19;5012923;28;20044;-77
2021/08/18 10:34:09;;;;;;;1.77;1.33;;;;;;;26.95;40.03;101685.19;5013525;28;20029;-77
2021/08/18 10:36:40;;;;;;;2.47;1.83;;;;;;;27.12;39.63;101680.78;5013267;28;20108;-82
2021/08/18 10:39:18;;;;;;;6.82;2.10;;;;;;;26.95;39.84;101683.19;5013453;28;20079;-75
2021/08/18 10:42:05;;;;;;;5.75;1.65;;;;;;;26.77;39.87;101680.41;5011602;28;20029;-79
2021/08/18 10:44:52;;;;;;;3.78;1.98;;;;;;;27.05;39.72;101681.59;5010928;28;20496;-80
2021/08/18 10:47:40;;;;;;;3.28;1.58;;;;;;;27.15;39.41;101677.19;5008859;28;20025;-79
2021/08/18 10:50:17;;;;;;;2.28;1.73;;;;;;;27.03;39.54;101672.75;5010612;28;20029;-76
2021/08/18 10:52:43;;;;;;;2.67;1.55;;;;;;;26.99;39.87;101675.59;5011451;28;20029;-76
2021/08/18 10:55:37;;;;;;;3.45;1.98;;;;;;;26.92;40.09;101675.59;5012057;28;20034;-79
2021/08/18 10:58:05;;;;;;;5.60;2.40;;;;;;;26.93;40.24;101670.78;5012115;28;20457;-82
2021/08/18 11:00:40;;;;;;;2.53;1.73;;;;;;;27.08;39.88;101678.81;5014000;28;20490;-75
2021/08/18 11:03:16;;;;;;;3.85;1.60;;;;;;;26.87;40.14;101681.59;5011316;28;20065;-75
2021/08/18 11:05:45;;;;;;;2.38;1.52;;;;;;;26.91;40.15;101678.81;5012805;28;20098;-77
2021/08/18 11:08:21;;;;;;;3.20;1.30;;;;;;;27.02;39.65;101673.97;5015951;28;20018;-76
2021/08/18 11:10:55;;;;;;;2.75;1.88;;;;;;;26.77;40.19;101674.00;5015173;28;20033;-76
2021/08/18 11:13:50;;;;;;;4.47;2.03;;;;;;;26.58;40.70;101674.41;5012446;28;20419;-78
2021/08/18 11:16:28;;;;;;;2.88;1.40;;;;;;;26.99;39.76;101672.78;5013041;28;20082;-77
2021/08/18 11:18:56;;;;;;;6.75;2.33;;;;;;;27.04;39.66;101669.56;5014925;28;20033;-77
2021/08/18 11:21:25;;;;;;;6.05;1.65;;;;;;;27.02;39.94;101666.34;5014686;28;20049;-77
2021/08/18 11:23:54;;;;;;;2.65;1.55;;;;;;;26.99;39.90;101664.38;5014260;28;20033;-76
2021/08/18 11:26:22;;;;;;;2.10;1.40;;;;;;;26.98;39.95;101659.13;5015462;28;20025;-76